Time;durP1;ratioP1;P1;durP2;ratioP2;P2;SDS_P1;SDS_P2;PMS_P1;PMS_P2;Temp;Humidity;BMP_temperature;BMP_pressure;BME280_temperature;BME280_humidity;BME280_pressure;Samples;Min_cycle;Max_cycle;Signal;HPM_P1;HPM_P2
2021/04/18 00:01:59;;;;;;;12.80;6.18;;;;;;;7.97;50.63;101784.94;4430875;32;20480;-73
2021/04/18 00:04:24;;;;;;;18.17;7.43;;;;;;;7.66;51.70;101774.41;4436132;32;20120;-73
2021/04/18 00:06:50;;;;;;;13.52;6.95;;;;;;;7.55;52.19;101779.97;4436968;32;20522;-73
2021/04/18 00:09:16;;;;;;;15.68;6.93;;;;;;;7.59;52.32;101775.19;4430413;32;20037;-73
2021/04/18 00:11:42;;;;;;;16.77;7.35;;;;;;;7.58;52.79;101767.19;4430034;32;20502;-73
2021/04/18 00:14:09;;;;;;;20.40;6.97;;;;;;;7.45;53.64;101763.09;4433029;32;20060;-73
2021/04/18 00:16:36;;;;;;;14.63;6.68;;;;;;;7.48;53.68;101762.31;4432858;32;20089;-73
2021/04/18 00:19:03;;;;;;;14.68;6.47;;;;;;;7.44;53.54;101756.72;4433425;32;20079;-73
2021/04/18 00:21:30;;;;;;;13.15;6.28;;;;;;;7.47;53.52;101755.94;4430456;32;20756;-73
2021/04/18 00:23:56;;;;;;;18.10;7.15;;;;;;;7.43;53.50;101752.28;4433093;32;20057;-73
2021/04/18 00:26:21;;;;;;;14.87;6.22;;;;;;;7.37;53.69;101753.06;4434406;32;20601;-73
2021/04/18 00:28:47;;;;;;;13.25;5.85;;;;;;;7.42;53.30;101742.28;4428172;32;20144;-73
2021/04/18 00:31:13;;;;;;;14.95;5.70;;;;;;;7.45;53.00;101743.50;4433522;32;20362;-73
2021/04/18 00:33:39;;;;;;;18.12;6.70;;;;;;;7.38;53.13;101746.28;4431992;32;20421;-73
2021/04/18 00:36:06;;;;;;;12.75;6.22;;;;;;;7.20;53.99;101737.78;4433417;32;20864;-73
2021/04/18 00:38:32;;;;;;;16.25;7.15;;;;;;;7.18;54.32;101747.78;4436012;32;20085;-73
2021/04/18 00:40:58;;;;;;;13.27;5.78;;;;;;;7.13;54.48;101739.75;4439612;32;20087;-73
2021/04/18 00:43:23;;;;;;;11.55;5.40;;;;;;;7.03;54.56;101746.09;4435918;32;20433;-73
2021/04/18 00:45:49;;;;;;;14.68;5.10;;;;;;;6.95;54.54;101750.81;4421996;32;20060;-72
2021/04/18 00:48:14;;;;;;;12.60;5.85;;;;;;;6.68;55.26;101734.63;4439344;32;20057;-73
2021/04/18 00:50:40;;;;;;;13.30;5.70;;;;;;;6.59;55.81;101731.38;4435706;32;20542;-73
2021/04/18 00:53:08;;;;;;;10.50;5.30;;;;;;;6.55;56.12;101730.53;4437138;32;20080;-73
2021/04/18 00:55:37;;;;;;;13.50;5.82;;;;;;;6.47;56.39;101723.28;4440504;32;20082;-72
2021/04/18 00:58:04;;;;;;;12.55;5.80;;;;;;;6.49;56.36;101726.47;4433607;32;20045;-73
2021/04/18 01:00:31;;;;;;;12.90;4.78;;;;;;;6.57;56.02;101716.97;4433178;32;20440;-73
2021/04/18 01:02:56;;;;;;;12.00;4.97;;;;;;;6.56;55.97;101715.37;4437476;32;20455;-73
2021/04/18 01:05:22;;;;;;;11.27;5.32;;;;;;;6.53;55.66;101716.16;4435449;32;20530;-73
2021/04/18 01:07:48;;;;;;;11.98;5.10;;;;;;;6.48;55.85;101716.50;4433799;32;20068;-73
2021/04/18 01:10:16;;;;;;;12.50;5.22;;;;;;;6.38;55.91;101706.81;4433813;32;20661;-73
2021/04/18 01:12:43;;;;;;;14.10;6.35;;;;;;;6.33;56.05;101704.41;4433788;32;20483;-73
2021/04/18 01:15:10;;;;;;;10.48;5.05;;;;;;;6.27;56.29;101696.75;4437031;32;20097;-73
2021/04/18 01:17:36;;;;;;;9.68;4.80;;;;;;;6.31;56.13;101698.37;4434947;32;20488;-73
2021/04/18 01:20:05;;;;;;;13.45;4.90;;;;;;;6.26;56.32;101695.16;4436876;32;21069;-73
2021/04/18 01:22:31;;;;;;;13.52;5.15;;;;;;;6.26;56.52;101693.12;4420027;32;20080;-73
2021/04/18 01:24:57;;;;;;;13.05;5.45;;;;;;;6.02;57.26;101697.31;4435087;32;20121;-73
2021/04/18 01:27:23;;;;;;;12.60;5.05;;;;;;;5.99;57.57;101694.50;4434702;32;20046;-73
2021/04/18 01:29:51;;;;;;;10.70;5.30;;;;;;;5.86;57.99;101691.19;4433862;32;20057;-74
2021/04/18 01:32:20;;;;;;;15.15;6.00;;;;;;;5.88;58.14;101697.19;4440157;32;20036;-73
2021/04/18 01:34:47;;;;;;;13.38;5.95;;;;;;;5.87;58.21;101694.78;4433665;32;20454;-73
2021/04/18 01:37:16;;;;;;;10.43;5.03;;;;;;;5.81;58.74;101691.53;4436491;32;21165;-73
2021/04/18 01:39:42;;;;;;;14.65;5.95;;;;;;;5.77;58.92;101689.88;4439160;32;20103;-73
2021/04/18 01:42:07;;;;;;;10.38;5.68;;;;;;;5.71;59.13;101692.19;4439449;32;20044;-73
2021/04/18 01:44:33;;;;;;;9.98;5.15;;;;;;;5.76;58.91;101696.62;4434549;32;20110;-74
2021/04/18 01:47:00;;;;;;;15.65;6.12;;;;;;;5.79;58.91;101695.84;4438795;32;20041;-74
2021/04/18 01:49:25;;;;;;;12.10;6.43;;;;;;;5.96;58.47;101689.69;4439575;32;20056;-74
2021/04/18 01:51:51;;;;;;;14.02;5.80;;;;;;;5.93;58.45;101687.66;4435543;32;20418;-74
2021/04/18 01:54:16;;;;;;;15.27;6.32;;;;;;;5.96;58.20;101686.91;4434508;32;20042;-73
2021/04/18 01:56:42;;;;;;;15.60;5.43;;;;;;;5.95;58.33;101688.88;4434958;32;20049;-74
2021/04/18 01:59:08;;;;;;;15.38;5.60;;;;;;;5.88;58.86;101686.03;4417521;32;20076;-73
2021/04/18 02:01:38;;;;;;;13.65;5.78;;;;;;;5.87;58.70;101672.44;4433217;32;20487;-74
2021/04/18 02:04:26;;;;;;;12.80;5.25;;;;;;;5.85;58.84;101680.38;4437116;32;20053;-75
2021/04/18 02:06:52;;;;;;;12.27;4.70;;;;;;;5.87;58.43;101683.63;4435607;32;20097;-74
2021/04/18 02:09:17;;;;;;;12.40;5.03;;;;;;;5.76;58.57;101671.47;4434153;32;20034;-74
2021/04/18 02:11:43;;;;;;;11.65;4.75;;;;;;;5.78;58.39;101663.53;4435397;32;20076;-73
2021/04/18 02:14:09;;;;;;;12.57;5.10;;;;;;;5.69;58.48;101668.63;4433261;32;20149;-73
2021/04/18 02:16:35;;;;;;;15.70;4.85;;;;;;;5.73;58.46;101666.66;4438065;32;20402;-74
2021/04/18 02:19:02;;;;;;;12.63;4.50;;;;;;;5.64;58.55;101664.19;4436275;32;20077;-74
2021/04/18 02:21:27;;;;;;;11.95;4.70;;;;;;;5.59;58.67;101672.12;4417590;32;20432;-74
2021/04/18 02:23:54;;;;;;;10.82;4.62;;;;;;;5.58;58.69;101668.50;4429941;32;20041;-73
2021/04/18 02:26:19;;;;;;;8.80;4.25;;;;;;;5.55;58.65;101663.69;4433536;32;20678;-74
2021/04/18 02:28:46;;;;;;;10.52;4.68;;;;;;;5.49;59.00;101659.63;4422941;32;20434;-74
2021/04/18 02:31:12;;;;;;;10.15;4.43;;;;;;;5.44;59.14;101667.56;4422571;32;20075;-74
2021/04/18 02:33:38;;;;;;;11.12;4.45;;;;;;;5.48;58.91;101665.59;4438820;32;20411;-74
2021/04/18 02:36:05;;;;;;;8.57;4.15;;;;;;;5.42;58.97;101664.31;4434808;32;20410;-73
2021/04/18 02:38:30;;;;;;;12.82;5.07;;;;;;;5.45;58.81;101666.34;4437359;32;20796;-73
2021/04/18 02:40:56;;;;;;;9.75;4.30;;;;;;;5.34;59.10;101654.28;4431222;32;20707;-73
2021/04/18 02:43:22;;;;;;;8.90;3.83;;;;;;;5.27;59.10;101660.56;4438581;32;20085;-74
2021/04/18 02:45:47;;;;;;;10.73;4.12;;;;;;;5.24;59.15;101655.75;4435829;32;20119;-73
2021/04/18 02:48:13;;;;;;;13.95;4.82;;;;;;;5.23;59.35;101662.53;4437118;32;20073;-73
2021/04/18 02:50:39;;;;;;;12.88;5.62;;;;;;;5.21;59.63;101662.09;4430739;32;20082;-74
2021/04/18 02:53:04;;;;;;;13.88;5.60;;;;;;;5.21;59.82;101655.69;4437807;32;20038;-74
2021/04/18 02:55:30;;;;;;;15.02;5.80;;;;;;;5.22;60.00;101648.94;4436851;32;20664;-74
2021/04/18 02:57:56;;;;;;;11.65;6.12;;;;;;;5.18;60.69;101653.66;4436872;32;20429;-74
2021/04/18 03:00:22;;;;;;;14.30;6.78;;;;;;;5.16;60.80;101648.47;4429713;32;20041;-74
2021/04/18 03:02:47;;;;;;;12.55;5.68;;;;;;;5.10;61.14;101644.44;4433535;32;20105;-74
2021/04/18 03:05:13;;;;;;;9.32;4.90;;;;;;;5.17;60.74;101654.84;4436388;32;20049;-73
2021/04/18 03:07:39;;;;;;;13.38;5.10;;;;;;;5.11;60.41;101654.41;4433559;32;20153;-74
2021/04/18 03:10:05;;;;;;;13.55;5.40;;;;;;;5.13;60.29;101659.59;4434341;32;20048;-74
2021/04/18 03:12:31;;;;;;;10.88;5.18;;;;;;;5.12;60.16;101649.63;4432657;32;20077;-74
2021/04/18 03:14:56;;;;;;;12.82;4.75;;;;;;;5.04;60.35;101647.94;4433228;32;20076;-74
2021/04/18 03:17:23;;;;;;;13.88;5.70;;;;;;;5.03;60.34;101647.13;4433883;32;20445;-74
2021/04/18 03:19:49;;;;;;;14.27;5.18;;;;;;;4.80;61.12;101648.41;4429221;32;20037;-74
2021/04/18 03:22:15;;;;;;;11.60;4.57;;;;;;;4.82;61.09;101637.69;4433558;32;20520;-74
2021/04/18 03:24:41;;;;;;;14.60;4.45;;;;;;;4.84;61.13;101646.44;4434038;32;20144;-74
2021/04/18 03:27:08;;;;;;;9.50;4.05;;;;;;;4.79;61.27;101650.37;4435681;32;20072;-74
2021/04/18 03:29:34;;;;;;;13.18;4.70;;;;;;;4.75;61.42;101640.37;4433781;32;20079;-74
2021/04/18 03:32:00;;;;;;;10.50;4.43;;;;;;;4.65;61.42;101644.59;4434988;32;20089;-74
2021/04/18 03:34:25;;;;;;;10.88;4.90;;;;;;;4.58;61.62;101644.50;4434435;32;20081;-74
2021/04/18 03:36:51;;;;;;;11.12;5.12;;;;;;;4.62;61.63;101653.72;4433613;32;20379;-74
2021/04/18 03:39:17;;;;;;;11.10;5.65;;;;;;;4.56;62.18;101644.06;4434570;32;20199;-73
2021/04/18 03:41:43;;;;;;;14.63;5.65;;;;;;;4.65;62.58;101650.19;4433009;32;20495;-74
2021/04/18 03:44:08;;;;;;;9.63;4.68;;;;;;;4.68;62.37;101637.47;4434101;32;20086;-73
2021/04/18 03:46:34;;;;;;;9.80;4.65;;;;;;;4.70;62.14;101640.69;4435113;32;20369;-73
2021/04/18 03:49:00;;;;;;;12.50;4.97;;;;;;;4.75;61.66;101643.94;4435306;32;20092;-73
2021/04/18 03:51:26;;;;;;;13.05;4.68;;;;;;;4.71;61.72;101645.06;4431564;32;20033;-73
2021/04/18 03:53:52;;;;;;;12.77;4.55;;;;;;;4.67;61.66;101645.03;4433287;32;20488;-73
2021/04/18 03:56:17;;;;;;;13.43;4.47;;;;;;;4.71;61.48;101636.72;4434452;32;20549;-73
2021/04/18 03:58:43;;;;;;;11.63;3.65;;;;;;;4.73;61.19;101635.19;4419209;32;20088;-73
2021/04/18 04:01:09;;;;;;;8.00;3.90;;;;;;;4.73;60.68;101634.34;4431613;32;20072;-73
2021/04/18 04:03:36;;;;;;;8.93;4.00;;;;;;;4.71;60.57;101643.09;4432207;32;20202;-74
2021/04/18 04:06:02;;;;;;;8.15;3.78;;;;;;;4.67;60.84;101639.47;4435468;32;20037;-74
2021/04/18 04:08:28;;;;;;;9.75;4.95;;;;;;;4.67;60.61;101630.28;4435040;32;20712;-73
2021/04/18 04:10:53;;;;;;;13.38;4.87;;;;;;;4.64;61.20;101640.22;4434471;32;20482;-73
2021/04/18 04:13:19;;;;;;;11.43;4.55;;;;;;;4.61;61.37;101637.37;4435997;32;20112;-74
2021/04/18 04:15:44;;;;;;;15.23;5.03;;;;;;;4.62;61.50;101634.22;4438816;32;20072;-74
2021/04/18 04:18:10;;;;;;;12.43;5.07;;;;;;;4.61;61.49;101629.00;4439940;32;20105;-73
2021/04/18 04:20:36;;;;;;;10.93;4.97;;;;;;;4.59;62.00;101628.56;4436949;32;20570;-74
2021/04/18 04:23:01;;;;;;;10.20;4.82;;;;;;;4.61;62.26;101631.81;4435417;32;20034;-73
2021/04/18 04:25:29;;;;;;;10.23;5.32;;;;;;;4.58;62.24;101632.56;4434644;32;20054;-73
2021/04/18 04:27:56;;;;;;;14.30;5.45;;;;;;;4.53;62.62;101624.50;4438550;32;20667;-73
2021/04/18 04:30:23;;;;;;;12.90;6.05;;;;;;;4.56;62.42;101634.91;4440090;32;20093;-74
2021/04/18 04:32:49;;;;;;;14.73;6.90;;;;;;;4.52;62.61;101632.09;4434159;32;20037;-74
2021/04/18 04:35:14;;;;;;;13.00;5.75;;;;;;;4.50;62.69;101630.81;4434358;32;20104;-73
2021/04/18 04:37:40;;;;;;;12.57;5.80;;;;;;;4.50;62.53;101626.06;4420566;32;20079;-73
2021/04/18 04:40:06;;;;;;;11.63;5.18;;;;;;;4.49;62.54;101632.84;4421337;32;20508;-73
2021/04/18 04:42:33;;;;;;;9.65;4.68;;;;;;;4.42;62.48;101635.50;4435454;32;20105;-73
2021/04/18 04:44:58;;;;;;;13.43;4.47;;;;;;;4.43;62.20;101631.53;4438025;32;20385;-73
2021/04/18 04:47:24;;;;;;;12.40;4.57;;;;;;;4.40;62.38;101625.91;4435679;32;20406;-74
2021/04/18 04:49:50;;;;;;;9.98;4.35;;;;;;;4.34;62.55;101636.59;4437617;32;20041;-74
2021/04/18 04:52:15;;;;;;;10.32;3.47;;;;;;;4.32;62.34;101636.13;4435523;32;20072;-73
2021/04/18 04:54:41;;;;;;;9.32;4.15;;;;;;;4.32;62.40;101641.72;4433810;32;20077;-73
2021/04/18 04:57:07;;;;;;;10.30;4.55;;;;;;;4.33;62.38;101639.75;4432765;32;20065;-73
2021/04/18 04:59:33;;;;;;;12.57;4.40;;;;;;;4.31;62.22;101642.09;4436870;32;20122;-74
2021/04/18 05:01:59;;;;;;;12.40;4.78;;;;;;;4.23;62.45;101635.59;4434666;32;20106;-74
2021/04/18 05:04:25;;;;;;;11.57;4.20;;;;;;;4.29;62.27;101636.87;4438610;32;20071;-74
2021/04/18 05:06:52;;;;;;;13.27;3.95;;;;;;;4.24;62.38;101634.44;4434362;32;20106;-74
2021/04/18 05:09:17;;;;;;;12.90;4.12;;;;;;;4.35;62.15;101640.97;4436011;32;20106;-74
2021/04/18 05:11:43;;;;;;;13.07;4.07;;;;;;;4.36;62.24;101639.00;4433539;32;20694;-74
2021/04/18 05:14:09;;;;;;;13.07;4.03;;;;;;;4.50;61.79;101636.41;4435138;32;20366;-73
2021/04/18 05:16:35;;;;;;;9.75;4.20;;;;;;;4.54;61.39;101643.63;4436392;32;20093;-73
2021/04/18 05:19:00;;;;;;;9.95;3.20;;;;;;;4.62;61.20;101638.97;4435019;32;20487;-73
2021/04/18 05:21:26;;;;;;;7.97;3.42;;;;;;;4.65;60.64;101633.47;4430810;32;20041;-73
2021/04/18 05:23:53;;;;;;;10.57;3.55;;;;;;;4.75;60.11;101626.44;4437823;32;20120;-73
2021/04/18 05:26:19;;;;;;;6.97;2.92;;;;;;;4.79;59.73;101630.84;4435045;32;20041;-73
2021/04/18 05:28:45;;;;;;;7.87;3.00;;;;;;;4.85;59.52;101634.91;4431045;32;20422;-74
2021/04/18 05:31:11;;;;;;;6.87;3.30;;;;;;;4.86;59.58;101633.75;4434003;32;20104;-73
2021/04/18 05:33:36;;;;;;;6.95;3.10;;;;;;;5.04;59.42;101631.19;4432877;32;20041;-74
2021/04/18 05:36:04;;;;;;;8.93;3.28;;;;;;;5.14;58.95;101636.91;4434324;32;20100;-74
2021/04/18 05:38:30;;;;;;;8.20;2.90;;;;;;;5.29;58.60;101623.91;4435199;32;20046;-73
2021/04/18 05:40:56;;;;;;;7.37;3.00;;;;;;;5.43;58.09;101632.47;4420949;32;20385;-73
2021/04/18 05:43:22;;;;;;;8.20;2.80;;;;;;;5.54;57.22;101631.38;4435513;32;20465;-74
2021/04/18 05:45:48;;;;;;;8.60;3.33;;;;;;;5.65;57.18;101637.06;4438143;32;20489;-74
2021/04/18 05:48:14;;;;;;;6.47;3.53;;;;;;;5.82;56.81;101628.91;4431692;32;20265;-73
2021/04/18 05:50:39;;;;;;;7.78;3.97;;;;;;;6.00;56.07;101635.44;4434677;32;20038;-74
2021/04/18 05:53:05;;;;;;;6.18;3.20;;;;;;;6.22;55.45;101642.00;4418967;32;20072;-74
2021/04/18 05:55:31;;;;;;;7.07;3.45;;;;;;;6.48;54.27;101635.41;4436091;32;20067;-74
2021/04/18 05:57:56;;;;;;;12.02;3.97;;;;;;;6.63;54.21;101643.50;4433959;32;20089;-74
2021/04/18 06:00:22;;;;;;;8.02;3.42;;;;;;;6.81;53.39;101638.03;4434091;32;20545;-73
2021/04/18 06:02:49;;;;;;;8.18;3.30;;;;;;;6.85;52.79;101641.62;4421966;32;20517;-73
2021/04/18 06:05:15;;;;;;;6.10;2.95;;;;;;;6.78;52.70;101641.59;4432989;32;20480;-74
2021/04/18 06:07:41;;;;;;;6.30;3.12;;;;;;;6.98;52.49;101645.69;4439714;32;20080;-73
2021/04/18 06:10:08;;;;;;;8.70;3.33;;;;;;;7.17;51.78;101653.78;4430846;32;20141;-73
2021/04/18 06:12:33;;;;;;;8.35;3.37;;;;;;;7.31;51.62;101642.66;4431167;32;20045;-74
2021/04/18 06:14:59;;;;;;;8.27;3.37;;;;;;;7.52;51.54;101651.13;4432816;32;20071;-73
2021/04/18 06:17:25;;;;;;;7.12;3.87;;;;;;;7.85;50.73;101645.97;4436257;32;20077;-74
2021/04/18 06:19:51;;;;;;;7.37;3.67;;;;;;;8.11;49.85;101644.81;4436707;32;20617;-74
2021/04/18 06:22:17;;;;;;;8.45;3.62;;;;;;;8.21;49.64;101646.81;4433762;32;20494;-74
2021/04/18 06:24:42;;;;;;;9.45;3.53;;;;;;;8.36;49.54;101653.22;4434160;32;20087;-74
2021/04/18 06:27:08;;;;;;;7.10;4.12;;;;;;;8.50;49.12;101656.03;4431926;32;20621;-73
2021/04/18 06:29:34;;;;;;;8.77;4.12;;;;;;;8.67;48.64;101653.22;4434023;32;20108;-74
2021/04/18 06:32:00;;;;;;;8.88;3.80;;;;;;;8.78;48.27;101650.37;4433953;32;20441;-74
2021/04/18 06:34:26;;;;;;;8.25;4.07;;;;;;;8.90;47.97;101658.38;4436870;32;20036;-74
2021/04/18 06:36:53;;;;;;;8.57;4.78;;;;;;;8.99;47.74;101659.53;4431598;32;20080;-74
2021/04/18 06:39:19;;;;;;;11.40;4.50;;;;;;;9.12;47.41;101652.28;4433441;32;20478;-74
2021/04/18 06:41:51;;;;;;;11.88;5.05;;;;;;;9.24;47.58;101656.66;4431724;32;20172;-73
2021/04/18 06:44:18;;;;;;;13.15;5.20;;;;;;;9.31;47.57;101653.81;4433868;32;20112;-74
2021/04/18 06:46:43;;;;;;;9.77;4.65;;;;;;;9.55;47.01;101650.87;4427885;32;20041;-74
2021/04/18 06:49:10;;;;;;;17.70;5.55;;;;;;;9.72;46.26;101652.78;4436328;32;20037;-74
2021/04/18 06:51:37;;;;;;;13.02;5.05;;;;;;;9.96;45.74;101642.59;4421373;32;20088;-74
2021/04/18 06:54:04;;;;;;;11.20;4.90;;;;;;;10.21;44.65;101645.25;4422478;32;20048;-74
2021/04/18 06:56:30;;;;;;;13.30;5.55;;;;;;;10.34;44.71;101655.56;4433648;32;20475;-74
2021/04/18 06:58:57;;;;;;;12.15;4.80;;;;;;;10.44;44.37;101662.34;4431921;32;20069;-74
2021/04/18 07:01:24;;;;;;;10.13;4.82;;;;;;;10.67;43.84;101656.87;4438890;32;20106;-74
2021/04/18 07:04:10;;;;;;;10.77;4.60;;;;;;;10.84;43.24;101661.53;4436818;32;20267;-74
2021/04/18 07:06:39;;;;;;;10.90;4.87;;;;;;;10.95;42.60;101663.00;4432056;32;20068;-74
2021/04/18 07:09:05;;;;;;;7.62;4.50;;;;;;;11.07;42.48;101670.94;4434480;32;20434;-74
2021/04/18 07:11:51;;;;;;;8.82;4.80;;;;;;;11.22;42.36;101668.75;4430309;32;20119;-74
2021/04/18 07:14:28;;;;;;;10.25;4.95;;;;;;;11.31;41.63;101677.50;4432332;32;20442;-74
2021/04/18 07:19:46;;;;;;;10.00;4.87;;;;;;;12.00;40.39;101677.81;3981055;32;15081143;-74
2021/04/18 07:22:17;;;;;;;8.05;4.60;;;;;;;12.00;40.39;101677.81;4438770;32;20037;-73
2021/04/18 07:24:53;;;;;;;10.40;4.15;;;;;;;11.59;40.53;101672.31;4440343;32;20038;-72
2021/04/18 07:27:20;;;;;;;9.55;4.50;;;;;;;11.60;40.35;101673.09;4438974;32;20033;-73
2021/04/18 07:30:00;;;;;;;7.93;4.28;;;;;;;11.72;40.18;101672.56;4439157;32;20763;-73
2021/04/18 07:32:28;;;;;;;8.85;4.20;;;;;;;11.93;39.75;101667.41;4438832;32;20533;-73
2021/04/18 07:34:54;;;;;;;10.18;4.70;;;;;;;12.06;39.19;101668.41;4440982;32;20033;-73
2021/04/18 07:37:24;;;;;;;13.80;5.30;;;;;;;12.12;39.30;101668.72;4439434;32;20502;-73
2021/04/18 07:39:54;;;;;;;13.25;5.18;;;;;;;12.38;39.01;101667.91;4437825;32;20056;-73
2021/04/18 07:47:47;;;;;;;16.50;5.60;;;;;;;13.53;37.56;101676.22;3984748;32;15033357;-74
2021/04/18 07:50:21;;;;;;;11.88;5.20;;;;;;;13.53;37.56;101676.22;4438203;32;20056;-74
2021/04/18 07:52:48;;;;;;;12.13;5.43;;;;;;;13.23;38.21;101679.25;4429635;32;20064;-74
2021/04/18 07:55:16;;;;;;;10.70;5.35;;;;;;;13.23;37.83;101679.25;4439827;32;20102;-74
2021/04/18 07:57:43;;;;;;;10.25;4.62;;;;;;;13.35;37.21;101680.66;4437561;32;20116;-74
2021/04/18 08:00:11;;;;;;;10.98;5.30;;;;;;;13.47;36.62;101680.00;4437460;32;20033;-74
2021/04/18 08:02:39;;;;;;;14.57;5.55;;;;;;;13.63;36.11;101675.19;4426205;32;20378;-74
2021/04/18 08:05:09;;;;;;;12.95;5.32;;;;;;;13.74;36.25;101678.59;4422639;32;20068;-74
2021/04/18 08:07:58;;;;;;;8.90;4.53;;;;;;;13.74;35.93;101674.97;4420960;32;20037;-74
2021/04/18 08:10:27;;;;;;;12.85;5.53;;;;;;;13.86;35.16;101677.13;4417780;32;20457;-74
2021/04/18 08:13:03;;;;;;;18.48;5.85;;;;;;;13.31;36.77;101679.91;4422782;32;20482;-74
2021/04/18 08:15:30;;;;;;;11.43;5.78;;;;;;;13.56;36.83;101675.34;4421267;32;20034;-74
2021/04/18 08:18:08;;;;;;;10.85;5.47;;;;;;;13.36;37.41;101668.94;4422435;32;20086;-74
2021/04/18 08:20:38;;;;;;;14.85;5.68;;;;;;;13.53;37.18;101667.72;4422234;32;20072;-74
2021/04/18 08:26:08;;;;;;;14.20;6.07;;;;;;;14.48;35.59;101670.41;3953374;32;15723672;-74
2021/04/18 08:31:52;;;;;;;19.70;7.10;;;;;;;15.00;35.05;101671.84;3998261;31;15015558;-72
2021/04/18 08:37:01;;;;;;;12.27;6.20;;;;;;;14.92;35.01;101672.47;3983321;32;15021529;-72
2021/04/18 08:39:38;;;;;;;10.25;6.32;;;;;;;14.92;35.01;101672.47;4438990;32;20041;-73
2021/04/18 08:42:07;;;;;;;13.30;6.95;;;;;;;14.57;35.11;101660.03;4439469;32;20065;-73
2021/04/18 08:47:12;;;;;;;13.33;5.90;;;;;;;15.62;33.91;101665.59;4006333;31;15023299;-74
2021/04/18 08:49:44;;;;;;;11.48;6.32;;;;;;;15.62;33.91;101665.59;4466026;32;20132;-74
2021/04/18 08:54:47;;;;;;;10.40;6.65;;;;;;;16.07;33.50;101670.31;3980281;32;15025041;-73
2021/04/18 08:57:19;;;;;;;15.93;7.15;;;;;;;16.07;33.50;101670.31;4440131;32;20050;-73
2021/04/18 08:59:48;;;;;;;12.40;6.72;;;;;;;15.81;33.69;101664.59;4437955;32;20115;-73
2021/04/18 09:02:15;;;;;;;13.93;6.25;;;;;;;15.99;33.43;101659.16;4428193;32;20071;-73
2021/04/18 09:04:45;;;;;;;12.50;6.10;;;;;;;16.31;32.85;101660.19;4424247;32;20054;-73
2021/04/18 09:07:14;;;;;;;9.45;5.95;;;;;;;16.38;32.45;101652.22;4422544;32;20038;-73
2021/04/18 09:09:40;;;;;;;11.23;5.80;;;;;;;16.50;32.47;101656.34;4421985;32;20103;-73
2021/04/18 09:12:07;;;;;;;10.57;6.32;;;;;;;16.79;32.00;101659.78;4422695;32;20079;-73
2021/04/18 09:14:40;;;;;;;13.40;6.68;;;;;;;16.88;31.81;101662.72;4418886;32;20041;-73
2021/04/18 09:17:24;;;;;;;15.85;6.30;;;;;;;17.08;32.13;101654.66;4422992;32;20387;-73
2021/04/18 09:22:28;;;;;;;13.35;6.25;;;;;;;17.95;31.04;101664.78;3981510;32;15022938;-73
2021/04/18 09:25:06;;;;;;;12.55;6.75;;;;;;;18.32;30.19;101657.97;4437207;32;20069;-73
2021/04/18 09:27:35;;;;;;;13.93;6.82;;;;;;;18.59;29.75;101663.00;4432345;32;20446;-73
2021/04/18 09:30:22;;;;;;;13.02;6.43;;;;;;;18.95;29.41;101660.97;4438609;32;20365;-73
2021/04/18 09:32:50;;;;;;;17.80;7.65;;;;;;;19.06;29.36;101655.59;4437406;32;20466;-72
2021/04/18 09:35:18;;;;;;;13.77;6.70;;;;;;;19.16;29.20;101657.19;4439160;32;20076;-73
2021/04/18 09:37:53;;;;;;;11.85;6.93;;;;;;;19.12;29.59;101652.91;4439038;32;20483;-73
2021/04/18 09:40:21;;;;;;;11.77;6.60;;;;;;;19.31;29.36;101660.22;4436653;32;20425;-73
2021/04/18 09:42:49;;;;;;;12.43;7.87;;;;;;;19.74;28.84;101657.78;4434852;32;20045;-73
2021/04/18 09:47:55;;;;;;;12.30;6.37;;;;;;;20.07;28.54;101657.81;3976100;31;15706749;-73
2021/04/18 09:50:23;;;;;;;14.40;6.37;;;;;;;20.07;28.54;101657.81;4454558;32;20393;-72
2021/04/18 09:52:51;;;;;;;12.90;6.93;;;;;;;19.80;28.62;101644.41;4451947;32;20045;-73
2021/04/18 10:03:13;;;;;;;11.05;5.82;;;;;;;19.52;28.12;101642.88;3983678;32;15026317;-72
2021/04/18 10:08:28;;;;;;;16.13;6.90;;;;;;;19.86;27.79;101644.56;4000938;31;15015709;-72
2021/04/18 10:10:56;;;;;;;13.30;6.12;;;;;;;19.86;27.79;101644.56;4463213;32;20383;-72
2021/04/18 10:19:18;;;;;;;12.68;6.40;;;;;;;20.99;26.31;101625.38;3997465;31;15015743;-73
2021/04/18 10:27:18;;;;;;;11.00;6.82;;;;;;;21.82;24.68;101629.81;3984989;32;15021790;-73
2021/04/18 10:29:46;;;;;;;12.57;7.15;;;;;;;21.82;24.68;101629.81;4438627;32;20100;-74
2021/04/18 10:32:12;;;;;;;14.38;7.55;;;;;;;21.96;24.19;101624.06;4439996;32;20029;-74
2021/04/18 10:34:38;;;;;;;15.23;7.57;;;;;;;22.24;23.64;101624.53;4440156;32;20347;-74
2021/04/18 10:37:04;;;;;;;13.45;7.47;;;;;;;22.47;23.46;101626.41;4439298;32;20072;-73
2021/04/18 10:39:31;;;;;;;15.13;7.55;;;;;;;22.75;22.88;101630.47;4437702;32;20037;-74
2021/04/18 10:41:57;;;;;;;13.10;7.60;;;;;;;22.96;22.62;101634.94;4438021;32;20057;-74
2021/04/18 10:44:23;;;;;;;14.30;7.60;;;;;;;22.98;22.31;101636.00;4440175;32;20085;-73
2021/04/18 10:46:51;;;;;;;13.57;8.60;;;;;;;23.31;22.07;101629.87;4441350;32;20054;-73
2021/04/18 10:49:17;;;;;;;14.80;7.72;;;;;;;23.34;21.86;101626.00;4438642;32;20476;-74
2021/04/18 10:51:43;;;;;;;12.23;8.07;;;;;;;23.55;21.74;101624.66;4437985;32;20037;-73
2021/04/18 10:54:09;;;;;;;15.73;8.70;;;;;;;23.80;21.46;101631.69;4438895;32;20068;-73
2021/04/18 10:56:35;;;;;;;16.48;8.23;;;;;;;23.26;21.68;101625.66;4439576;32;20107;-73
2021/04/18 10:59:02;;;;;;;14.50;8.45;;;;;;;23.25;21.76;101629.03;4436489;32;20422;-73
2021/04/18 11:01:28;;;;;;;12.45;8.20;;;;;;;23.30;21.42;101625.44;4434596;32;20089;-74
2021/04/18 11:03:54;;;;;;;17.27;9.55;;;;;;;23.36;21.35;101611.94;4429555;32;20097;-73
2021/04/18 11:06:20;;;;;;;15.85;9.68;;;;;;;23.92;20.86;101621.84;4428278;32;20064;-73
2021/04/18 11:08:46;;;;;;;14.45;8.85;;;;;;;24.04;20.55;101630.09;4429612;32;20662;-74
2021/04/18 11:11:12;;;;;;;16.12;9.75;;;;;;;24.33;20.34;101614.62;4427123;32;20482;-73
2021/04/18 11:13:39;;;;;;;16.85;8.95;;;;;;;24.12;20.47;101611.06;4428604;32;20073;-73
2021/04/18 11:16:05;;;;;;;14.60;8.45;;;;;;;24.28;20.33;101610.41;4432316;32;20069;-73
2021/04/18 11:18:31;;;;;;;19.12;9.32;;;;;;;24.53;20.29;101608.69;4429730;32;20026;-73
2021/04/18 11:20:57;;;;;;;15.07;8.52;;;;;;;24.71;19.89;101599.66;4429811;32;20093;-74
2021/04/18 11:23:23;;;;;;;13.85;9.73;;;;;;;24.51;20.10;101602.69;4430470;32;20069;-74
2021/04/18 11:25:48;;;;;;;19.50;11.10;;;;;;;24.98;19.57;101591.12;4433392;32;20109;-75
2021/04/18 11:28:15;;;;;;;16.02;11.07;;;;;;;25.05;19.49;101592.72;4433423;32;20026;-74
2021/04/18 11:30:41;;;;;;;17.95;10.65;;;;;;;25.42;19.14;101586.81;4428410;32;20038;-74
2021/04/18 11:33:06;;;;;;;15.82;11.02;;;;;;;25.35;19.15;101588.91;4431556;32;20137;-74
2021/04/18 11:35:32;;;;;;;20.02;10.38;;;;;;;25.73;18.71;101592.34;4431602;32;20461;-75
2021/04/18 11:38:00;;;;;;;16.83;10.63;;;;;;;25.74;18.81;101594.69;4420751;32;20081;-74
2021/04/18 11:40:27;;;;;;;19.08;11.50;;;;;;;25.65;18.81;101589.22;4419886;32;20430;-74
2021/04/18 11:42:53;;;;;;;14.85;10.20;;;;;;;25.57;18.88;101593.91;4421217;32;20102;-74
2021/04/18 11:45:20;;;;;;;18.33;11.77;;;;;;;25.30;19.12;101583.91;4414814;32;20038;-74
2021/04/18 11:47:46;;;;;;;18.77;11.02;;;;;;;25.76;18.97;101583.44;4417004;32;20037;-74
2021/04/18 11:50:13;;;;;;;21.73;11.05;;;;;;;26.40;18.38;101590.97;4414210;32;20038;-74
2021/04/18 11:52:42;;;;;;;15.60;10.85;;;;;;;26.95;17.69;101593.69;4420806;32;20063;-74
2021/04/18 11:55:09;;;;;;;17.20;10.98;;;;;;;26.98;17.49;101592.63;4417130;32;20100;-73
2021/04/18 11:57:35;;;;;;;19.40;11.75;;;;;;;26.90;17.64;101585.84;4418964;32;20096;-74
2021/04/18 12:00:02;;;;;;;16.45;11.55;;;;;;;26.58;18.00;101582.53;4419014;32;20087;-74
2021/04/18 12:02:28;;;;;;;14.93;11.05;;;;;;;26.55;17.92;101589.37;4419698;32;20552;-74
2021/04/18 12:04:54;;;;;;;18.40;11.12;;;;;;;26.45;17.73;101590.19;4420370;32;20065;-76
2021/04/18 12:07:19;;;;;;;13.02;9.82;;;;;;;26.34;17.88;101578.66;4423655;32;20085;-75
2021/04/18 12:09:45;;;;;;;16.98;10.50;;;;;;;26.55;17.89;101574.16;4416807;32;20117;-76
2021/04/18 12:12:11;;;;;;;15.55;10.48;;;;;;;26.35;17.88;101575.25;4418490;32;20128;-74